Time;durP1;ratioP1;P1;durP2;ratioP2;P2;SDS_P1;SDS_P2;PMS_P1;PMS_P2;Temp;Humidity;BMP_temperature;BMP_pressure;BME280_temperature;BME280_humidity;BME280_pressure;Samples;Min_cycle;Max_cycle;Signal;HPM_P1;HPM_P2
2024/02/28 00:00:18;;;;;;;4.13;0.95;;;;;;;;;;2082846;28;20017;-50
2024/02/28 00:01:19;;;;;;;0.60;0.30;;;;;;;;;;2086783;28;20037;-50
2024/02/28 00:02:21;;;;;;;4.43;0.68;;;;;;;;;;2082434;28;20108;-51
2024/02/28 00:03:23;;;;;;;1.92;0.60;;;;;;;;;;2083622;28;20093;-49
2024/02/28 00:04:24;;;;;;;5.95;0.65;;;;;;;;;;2089464;28;20372;-50
2024/02/28 00:05:26;;;;;;;1.42;0.40;;;;;;;;;;2087529;28;20021;-51
2024/02/28 00:06:27;;;;;;;3.67;0.60;;;;;;;;;;2093603;28;20040;-51
2024/02/28 00:07:30;;;;;;;3.72;0.82;;;;;;;;;;2086153;28;20471;-51
2024/02/28 00:08:31;;;;;;;2.38;0.30;;;;;;;;;;2084630;28;20029;-51
2024/02/28 00:09:32;;;;;;;4.30;0.82;;;;;;;;;;2084387;28;20020;-51
2024/02/28 00:10:33;;;;;;;3.03;0.50;;;;;;;;;;2083337;28;20020;-51
2024/02/28 00:11:35;;;;;;;4.53;0.50;;;;;;;;;;2087065;28;20021;-51
2024/02/28 00:12:36;;;;;;;2.25;0.45;;;;;;;;;;2089323;28;20021;-51
2024/02/28 00:13:37;;;;;;;2.35;0.50;;;;;;;;;;2086709;28;20480;-49
2024/02/28 00:14:39;;;;;;;2.58;0.82;;;;;;;;;;2092523;28;20025;-50
2024/02/28 00:15:40;;;;;;;1.73;0.50;;;;;;;;;;2088168;28;20503;-49
2024/02/28 00:16:42;;;;;;;0.80;0.60;;;;;;;;;;2083038;28;20060;-51
2024/02/28 00:17:43;;;;;;;1.83;0.50;;;;;;;;;;2085383;28;20826;-51
2024/02/28 00:18:44;;;;;;;3.47;0.73;;;;;;;;;;2084054;28;20010;-51
2024/02/28 00:19:46;;;;;;;2.63;0.50;;;;;;;;;;2088218;28;20484;-51
2024/02/28 00:20:47;;;;;;;4.50;0.68;;;;;;;;;;2089614;28;20533;-51
2024/02/28 00:21:48;;;;;;;1.30;0.40;;;;;;;;;;2086940;28;20110;-51
2024/02/28 00:22:49;;;;;;;3.95;0.88;;;;;;;;;;2080814;28;20395;-51
2024/02/28 00:23:51;;;;;;;2.20;0.98;;;;;;;;;;2083275;28;20021;-49
2024/02/28 00:24:54;;;;;;;1.95;0.60;;;;;;;;;;2083522;28;20778;-51
2024/02/28 00:25:55;;;;;;;2.05;0.60;;;;;;;;;;2086173;28;20017;-51
2024/02/28 00:26:56;;;;;;;2.65;0.82;;;;;;;;;;2087492;28;20029;-50
2024/02/28 00:27:58;;;;;;;3.00;0.82;;;;;;;;;;2083818;28;20085;-49
2024/02/28 00:28:59;;;;;;;1.77;0.60;;;;;;;;;;2087697;28;20020;-52
2024/02/28 00:30:00;;;;;;;4.80;0.77;;;;;;;;;;2088109;28;20025;-51
2024/02/28 00:31:01;;;;;;;2.90;0.40;;;;;;;;;;2089187;28;20040;-51
2024/02/28 00:32:02;;;;;;;2.58;0.45;;;;;;;;;;2082519;28;20043;-50
2024/02/28 00:33:04;;;;;;;2.78;0.70;;;;;;;;;;2082742;28;20101;-51
2024/02/28 00:34:06;;;;;;;3.05;0.52;;;;;;;;;;2083072;28;20017;-52
2024/02/28 00:35:07;;;;;;;1.75;0.60;;;;;;;;;;2083472;28;20056;-50
2024/02/28 00:36:09;;;;;;;2.00;0.60;;;;;;;;;;2090228;28;20088;-51
2024/02/28 00:37:10;;;;;;;2.80;0.80;;;;;;;;;;2085724;28;20112;-49
2024/02/28 00:38:11;;;;;;;2.83;1.00;;;;;;;;;;2085617;28;20033;-49
2024/02/28 00:39:13;;;;;;;2.85;0.80;;;;;;;;;;2086255;28;20108;-51
2024/02/28 00:40:14;;;;;;;4.57;1.25;;;;;;;;;;2083757;28;20058;-51
2024/02/28 00:41:15;;;;;;;2.75;0.90;;;;;;;;;;2083624;28;20052;-49
2024/02/28 00:42:16;;;;;;;4.28;1.00;;;;;;;;;;2082447;28;20056;-51
2024/02/28 00:43:18;;;;;;;4.57;1.00;;;;;;;;;;2084566;28;20029;-52
2024/02/28 00:44:19;;;;;;;2.75;0.60;;;;;;;;;;2089994;28;20204;-51
2024/02/28 00:45:20;;;;;;;2.28;0.50;;;;;;;;;;2085947;28;20018;-50
2024/02/28 00:46:21;;;;;;;3.95;0.75;;;;;;;;;;2084879;28;20067;-50
2024/02/28 00:47:23;;;;;;;4.20;1.08;;;;;;;;;;2086996;28;20115;-51
2024/02/28 00:48:24;;;;;;;4.97;0.93;;;;;;;;;;2087228;28;20479;-52
2024/02/28 00:49:26;;;;;;;4.68;0.77;;;;;;;;;;2085259;28;20393;-52
2024/02/28 00:50:27;;;;;;;3.15;1.02;;;;;;;;;;2085947;28;20083;-53
2024/02/28 00:51:28;;;;;;;3.58;0.63;;;;;;;;;;2087147;28;20022;-52
2024/02/28 00:52:32;;;;;;;3.35;0.98;;;;;;;;;;2086715;28;20519;-55
2024/02/28 00:53:33;;;;;;;2.92;0.68;;;;;;;;;;2085546;28;20392;-50
2024/02/28 00:54:34;;;;;;;4.78;1.17;;;;;;;;;;2085066;28;20026;-48
2024/02/28 00:55:35;;;;;;;2.00;0.60;;;;;;;;;;2082803;28;20500;-50
2024/02/28 00:56:37;;;;;;;2.53;1.00;;;;;;;;;;2084778;28;20039;-50
2024/02/28 00:57:38;;;;;;;2.95;1.00;;;;;;;;;;2083168;28;20377;-52
2024/02/28 00:58:39;;;;;;;2.75;0.88;;;;;;;;;;2089192;28;20028;-51
2024/02/28 00:59:42;;;;;;;4.20;1.20;;;;;;;;;;2086472;28;20022;-51
2024/02/28 01:00:43;;;;;;;3.67;1.00;;;;;;;;;;2085447;28;20020;-49
2024/02/28 01:01:45;;;;;;;3.33;1.30;;;;;;;;;;2087987;28;20028;-49
2024/02/28 01:02:46;;;;;;;8.07;1.42;;;;;;;;;;2085041;28;20489;-49
2024/02/28 01:03:47;;;;;;;4.32;1.02;;;;;;;;;;2081470;28;20091;-50
2024/02/28 01:04:48;;;;;;;4.20;0.93;;;;;;;;;;2084483;28;20067;-50
2024/02/28 01:05:50;;;;;;;3.33;1.10;;;;;;;;;;2085940;28;20379;-50
2024/02/28 01:06:52;;;;;;;4.00;0.90;;;;;;;;;;2085075;28;20032;-49
2024/02/28 01:07:53;;;;;;;3.63;0.88;;;;;;;;;;2083351;28;21037;-48
2024/02/28 01:08:54;;;;;;;2.92;0.80;;;;;;;;;;2086674;28;20032;-48
2024/02/28 01:09:55;;;;;;;2.70;0.73;;;;;;;;;;2086174;28;20032;-48
2024/02/28 01:10:58;;;;;;;3.42;1.13;;;;;;;;;;2083321;28;20314;-47
2024/02/28 01:11:59;;;;;;;4.68;0.90;;;;;;;;;;2085985;28;20051;-47
2024/02/28 01:13:01;;;;;;;3.17;0.93;;;;;;;;;;2087741;28;20029;-48
2024/02/28 01:14:02;;;;;;;2.28;0.80;;;;;;;;;;2085809;28;20033;-49
2024/02/28 01:15:04;;;;;;;2.70;0.68;;;;;;;;;;2087623;28;20326;-48
2024/02/28 01:16:05;;;;;;;2.95;1.00;;;;;;;;;;2086505;28;20036;-48
2024/02/28 01:17:06;;;;;;;5.30;1.00;;;;;;;;;;2085598;28;20134;-47
2024/02/28 01:18:07;;;;;;;4.07;0.98;;;;;;;;;;2088007;28;20104;-47
2024/02/28 01:19:09;;;;;;;3.40;1.23;;;;;;;;;;2085966;28;20545;-49
2024/02/28 01:20:10;;;;;;;2.55;0.65;;;;;;;;;;2082681;28;20082;-49
2024/02/28 01:21:11;;;;;;;1.88;0.60;;;;;;;;;;2086959;28;20033;-49
2024/02/28 01:22:13;;;;;;;4.85;0.90;;;;;;;;;;2084151;28;20005;-48
2024/02/28 01:23:14;;;;;;;2.75;0.70;;;;;;;;;;2083141;28;20567;-48
2024/02/28 01:24:15;;;;;;;5.05;0.88;;;;;;;;;;2081915;28;20064;-47
2024/02/28 01:25:16;;;;;;;3.17;0.80;;;;;;;;;;2082606;28;20029;-47
2024/02/28 01:26:21;;;;;;;2.33;0.90;;;;;;;;;;2079788;28;20060;-49
2024/02/28 01:27:22;;;;;;;5.00;1.25;;;;;;;;;;2078230;28;20026;-47
2024/02/28 01:28:23;;;;;;;3.50;1.23;;;;;;;;;;2084420;28;20037;-48
2024/02/28 01:29:25;;;;;;;2.78;1.10;;;;;;;;;;2085886;28;20195;-47
2024/02/28 01:30:26;;;;;;;5.05;1.50;;;;;;;;;;2082128;28;20531;-48
2024/02/28 01:31:27;;;;;;;5.00;1.40;;;;;;;;;;2084003;28;20037;-48
2024/02/28 01:32:30;;;;;;;4.00;1.58;;;;;;;;;;2081928;28;20026;-48
2024/02/28 01:33:32;;;;;;;2.60;1.00;;;;;;;;;;2081575;28;20029;-49
2024/02/28 01:34:33;;;;;;;3.88;1.33;;;;;;;;;;2082271;28;20026;-48
2024/02/28 01:35:34;;;;;;;3.33;0.95;;;;;;;;;;2085987;28;20021;-47
2024/02/28 01:36:35;;;;;;;3.45;1.10;;;;;;;;;;2086231;28;20036;-48
2024/02/28 01:37:37;;;;;;;6.10;1.38;;;;;;;;;;2082245;28;20474;-49
2024/02/28 01:38:38;;;;;;;2.45;0.98;;;;;;;;;;2086121;28;20029;-47
2024/02/28 01:39:39;;;;;;;4.03;1.40;;;;;;;;;;2085573;28;20096;-47
2024/02/28 01:40:45;;;;;;;4.40;1.23;;;;;;;;;;2083233;28;20036;-47
2024/02/28 01:41:57;;;;;;;3.47;1.00;;;;;;;;;;2082039;28;20028;-48
2024/02/28 01:43:08;;;;;;;3.85;1.00;;;;;;;;;;2092556;28;20033;-48
2024/02/28 01:44:09;;;;;;;;;;;;;;;;;;2082353;28;20013;-48
2024/02/28 01:45:14;;;;;;;4.80;1.33;;;;;;;;;;2085868;28;19921;-47
2024/02/28 01:46:22;;;;;;;6.88;1.50;;;;;;;;;;2082399;28;20071;-48
2024/02/28 01:47:24;;;;;;;6.20;1.30;;;;;;;;;;2085794;28;20032;-47
2024/02/28 01:48:25;;;;;;;3.22;0.93;;;;;;;;;;2091855;28;20104;-48
2024/02/28 01:49:26;;;;;;;3.70;1.50;;;;;;;;;;2083097;28;20026;-47
2024/02/28 01:50:27;;;;;;;3.85;1.33;;;;;;;;;;2085359;28;20013;-47
2024/02/28 01:51:29;;;;;;;3.55;1.10;;;;;;;;;;2086065;28;20021;-49
2024/02/28 01:52:30;;;;;;;4.30;1.23;;;;;;;;;;2083063;28;20088;-50
2024/02/28 01:53:31;;;;;;;6.78;1.35;;;;;;;;;;2084848;28;20473;-47
2024/02/28 01:54:35;;;;;;;4.13;1.20;;;;;;;;;;2085777;28;20025;-48
2024/02/28 01:55:36;;;;;;;4.45;1.23;;;;;;;;;;2086517;28;20143;-49
2024/02/28 01:56:38;;;;;;;5.28;1.20;;;;;;;;;;2086448;28;20029;-50
2024/02/28 01:57:40;;;;;;;6.00;1.08;;;;;;;;;;2084765;28;20029;-50
2024/02/28 01:58:41;;;;;;;2.47;1.17;;;;;;;;;;2086332;28;20054;-49
2024/02/28 01:59:43;;;;;;;6.47;1.73;;;;;;;;;;2085317;28;20487;-49
2024/02/28 02:00:45;;;;;;;4.57;1.50;;;;;;;;;;2083913;28;20074;-49
2024/02/28 02:01:46;;;;;;;4.35;1.10;;;;;;;;;;2084136;28;20503;-52
2024/02/28 02:02:47;;;;;;;6.65;1.45;;;;;;;;;;2083168;28;20123;-46
2024/02/28 02:03:49;;;;;;;3.90;0.98;;;;;;;;;;2083094;28;20017;-47
2024/02/28 02:04:52;;;;;;;3.88;1.13;;;;;;;;;;2087572;28;20021;-51
2024/02/28 02:05:54;;;;;;;6.35;1.60;;;;;;;;;;2088265;28;20025;-47
2024/02/28 02:06:58;;;;;;;7.30;1.30;;;;;;;;;;2087553;28;20086;-49
2024/02/28 02:07:59;;;;;;;6.05;1.70;;;;;;;;;;2085431;28;20029;-47
2024/02/28 02:09:02;;;;;;;5.45;1.55;;;;;;;;;;2083895;28;20032;-47
2024/02/28 02:10:07;;;;;;;7.75;1.70;;;;;;;;;;2082114;28;20049;-47
2024/02/28 02:11:09;;;;;;;3.67;1.73;;;;;;;;;;2084832;28;20033;-48
2024/02/28 02:12:10;;;;;;;5.82;1.63;;;;;;;;;;2085334;28;20029;-47
2024/02/28 02:13:11;;;;;;;5.03;1.38;;;;;;;;;;2082727;28;20029;-47
2024/02/28 02:14:13;;;;;;;5.35;1.38;;;;;;;;;;2085044;28;20088;-47
2024/02/28 02:15:15;;;;;;;6.57;1.65;;;;;;;;;;2086528;28;20029;-48
2024/02/28 02:16:16;;;;;;;4.55;1.42;;;;;;;;;;2086356;28;20051;-48
2024/02/28 02:17:17;;;;;;;4.35;1.30;;;;;;;;;;2082811;28;20542;-47
2024/02/28 02:18:19;;;;;;;5.43;1.67;;;;;;;;;;2086830;28;20029;-47
2024/02/28 02:19:20;;;;;;;8.18;1.90;;;;;;;;;;2087495;28;20024;-48
2024/02/28 02:20:22;;;;;;;5.95;2.17;;;;;;;;;;2081840;28;20025;-48
2024/02/28 02:21:27;;;;;;;6.57;1.52;;;;;;;;;;2088188;28;20029;-48
2024/02/28 02:22:32;;;;;;;6.53;2.22;;;;;;;;;;2087397;28;20093;-47
2024/02/28 02:23:33;;;;;;;7.63;1.45;;;;;;;;;;2085726;28;20021;-48
2024/02/28 02:24:35;;;;;;;6.72;1.80;;;;;;;;;;2088071;28;20048;-47
2024/02/28 02:25:44;;;;;;;5.57;1.70;;;;;;;;;;2085659;28;20016;-47
2024/02/28 02:26:46;;;;;;;6.88;1.58;;;;;;;;;;2085192;28;20606;-47
2024/02/28 02:27:47;;;;;;;10.68;1.70;;;;;;;;;;2087148;28;20036;-48
2024/02/28 02:28:49;;;;;;;3.85;1.25;;;;;;;;;;2081442;28;20642;-48
2024/02/28 02:29:50;;;;;;;7.30;1.58;;;;;;;;;;2083849;28;20036;-47
2024/02/28 02:30:51;;;;;;;4.60;1.50;;;;;;;;;;2088256;28;20372;-47
2024/02/28 02:31:52;;;;;;;8.40;1.52;;;;;;;;;;2085353;28;20025;-46
2024/02/28 02:32:54;;;;;;;4.85;1.30;;;;;;;;;;2084562;28;20100;-48
2024/02/28 02:33:55;;;;;;;6.03;1.63;;;;;;;;;;2084279;28;20034;-48
2024/02/28 02:34:57;;;;;;;3.75;1.50;;;;;;;;;;2083237;28;20036;-48
2024/02/28 02:35:58;;;;;;;4.80;1.58;;;;;;;;;;2084698;28;20025;-48
2024/02/28 02:37:00;;;;;;;5.18;1.55;;;;;;;;;;2083296;28;20018;-49
2024/02/28 02:38:01;;;;;;;5.13;1.40;;;;;;;;;;2087196;28;20055;-46
2024/02/28 02:39:02;;;;;;;9.20;1.58;;;;;;;;;;2086840;28;20091;-48
2024/02/28 02:40:04;;;;;;;5.63;1.10;;;;;;;;;;2085582;28;20033;-48
2024/02/28 02:41:05;;;;;;;4.63;1.17;;;;;;;;;;2088379;28;20391;-47
2024/02/28 02:42:06;;;;;;;5.45;1.00;;;;;;;;;;2085289;28;20021;-46
2024/02/28 02:43:08;;;;;;;3.70;1.40;;;;;;;;;;2082194;28;20337;-48
2024/02/28 02:44:09;;;;;;;4.97;1.42;;;;;;;;;;2083570;28;20052;-48
2024/02/28 02:45:10;;;;;;;6.43;0.90;;;;;;;;;;2083432;28;20503;-47
2024/02/28 02:46:11;;;;;;;6.18;1.45;;;;;;;;;;2084189;28;20031;-47
2024/02/28 02:47:13;;;;;;;4.20;1.25;;;;;;;;;;2085848;28;20108;-46
2024/02/28 02:48:14;;;;;;;7.00;1.40;;;;;;;;;;2082959;28;20025;-47
2024/02/28 02:49:16;;;;;;;3.53;1.35;;;;;;;;;;2087992;28;20028;-47
2024/02/28 02:50:17;;;;;;;5.28;1.60;;;;;;;;;;2090109;28;20008;-48
2024/02/28 02:51:19;;;;;;;3.83;1.23;;;;;;;;;;2081652;28;20099;-48
2024/02/28 02:52:20;;;;;;;5.65;1.30;;;;;;;;;;2081658;28;20021;-48
2024/02/28 02:53:22;;;;;;;4.55;1.23;;;;;;;;;;2084535;28;20024;-47
2024/02/28 02:54:23;;;;;;;3.05;1.10;;;;;;;;;;2084878;28;20025;-47
2024/02/28 02:55:24;;;;;;;4.63;1.40;;;;;;;;;;2088101;28;20506;-48
2024/02/28 02:56:25;;;;;;;6.20;1.00;;;;;;;;;;2085312;28;20026;-47
2024/02/28 02:57:27;;;;;;;3.83;1.10;;;;;;;;;;2088417;28;20020;-48
2024/02/28 02:58:28;;;;;;;3.22;1.08;;;;;;;;;;2088793;28;20012;-47
2024/02/28 02:59:29;;;;;;;3.35;1.17;;;;;;;;;;2087118;28;20120;-46
2024/02/28 03:00:30;;;;;;;3.47;1.00;;;;;;;;;;2087778;28;20085;-48
2024/02/28 03:01:32;;;;;;;3.30;1.17;;;;;;;;;;2083137;28;20082;-48
2024/02/28 03:02:33;;;;;;;3.42;1.05;;;;;;;;;;2083921;28;20128;-49
2024/02/28 03:03:34;;;;;;;3.20;0.80;;;;;;;;;;2086080;28;20144;-48
2024/02/28 03:04:36;;;;;;;2.35;0.90;;;;;;;;;;2083963;28;20026;-47
2024/02/28 03:05:37;;;;;;;3.55;0.90;;;;;;;;;;2082373;28;20115;-48
2024/02/28 03:06:38;;;;;;;3.85;1.02;;;;;;;;;;2082054;28;20380;-47
2024/02/28 03:07:39;;;;;;;5.07;1.10;;;;;;;;;;2083653;28;20477;-48
2024/02/28 03:08:41;;;;;;;4.07;0.90;;;;;;;;;;2080854;28;20032;-48
2024/02/28 03:09:42;;;;;;;5.13;1.13;;;;;;;;;;2081703;28;20075;-50
2024/02/28 03:10:43;;;;;;;6.43;1.27;;;;;;;;;;2082903;28;20033;-48
2024/02/28 03:11:44;;;;;;;4.22;0.98;;;;;;;;;;2081954;28;20092;-48
2024/02/28 03:12:46;;;;;;;4.78;1.10;;;;;;;;;;2082554;28;20037;-48
2024/02/28 03:13:47;;;;;;;1.92;0.98;;;;;;;;;;2083198;28;20609;-46
2024/02/28 03:14:48;;;;;;;3.58;1.10;;;;;;;;;;2084308;28;20025;-48
2024/02/28 03:15:50;;;;;;;2.28;1.10;;;;;;;;;;2083400;28;20041;-47
2024/02/28 03:16:51;;;;;;;3.08;0.95;;;;;;;;;;2085677;28;20550;-48
2024/02/28 03:17:52;;;;;;;5.07;1.20;;;;;;;;;;2082272;28;20143;-48
2024/02/28 03:18:54;;;;;;;2.50;1.13;;;;;;;;;;2085506;28;20041;-49
2024/02/28 03:19:56;;;;;;;3.47;1.05;;;;;;;;;;2086461;28;20021;-48
2024/02/28 03:20:57;;;;;;;5.80;0.75;;;;;;;;;;2084101;28;20418;-48
2024/02/28 03:21:59;;;;;;;2.40;1.10;;;;;;;;;;2083605;28;20021;-49
2024/02/28 03:23:00;;;;;;;2.03;1.10;;;;;;;;;;2083160;28;20029;-50
2024/02/28 03:24:01;;;;;;;1.33;0.70;;;;;;;;;;2083976;28;20025;-47
2024/02/28 03:25:03;;;;;;;4.57;0.98;;;;;;;;;;2088176;28;20025;-48
2024/02/28 03:26:04;;;;;;;1.50;0.70;;;;;;;;;;2081948;28;20029;-48
2024/02/28 03:27:05;;;;;;;2.40;1.02;;;;;;;;;;2085656;28;20036;-47
2024/02/28 03:28:07;;;;;;;4.40;0.80;;;;;;;;;;2084045;28;20035;-48
2024/02/28 03:29:10;;;;;;;3.22;1.20;;;;;;;;;;2083199;28;20101;-49
2024/02/28 03:30:11;;;;;;;3.78;0.98;;;;;;;;;;2083311;28;20036;-49
2024/02/28 03:31:12;;;;;;;4.25;0.80;;;;;;;;;;2084909;28;20568;-47
2024/02/28 03:32:14;;;;;;;2.60;1.00;;;;;;;;;;2082715;28;20228;-49
2024/02/28 03:33:15;;;;;;;2.22;0.70;;;;;;;;;;2081788;28;20029;-49
2024/02/28 03:34:17;;;;;;;5.50;1.13;;;;;;;;;;2081849;28;20365;-49
2024/02/28 03:35:18;;;;;;;2.38;0.98;;;;;;;;;;2086197;28;20028;-49
2024/02/28 03:36:19;;;;;;;5.65;1.20;;;;;;;;;;2086502;28;20388;-48
2024/02/28 03:37:20;;;;;;;3.67;1.10;;;;;;;;;;2086272;28;20017;-47
2024/02/28 03:38:22;;;;;;;2.28;0.90;;;;;;;;;;2088431;28;20029;-47
2024/02/28 03:39:23;;;;;;;1.95;0.70;;;;;;;;;;2087347;28;20041;-47
2024/02/28 03:40:24;;;;;;;2.85;1.08;;;;;;;;;;2089775;28;20087;-48
2024/02/28 03:41:25;;;;;;;4.97;0.95;;;;;;;;;;2086183;28;20374;-48
2024/02/28 03:42:27;;;;;;;2.63;1.13;;;;;;;;;;2085283;28;20097;-47
2024/02/28 03:43:28;;;;;;;4.32;1.00;;;;;;;;;;2081316;28;20110;-48
2024/02/28 03:44:29;;;;;;;1.92;1.00;;;;;;;;;;2080917;28;20365;-48
2024/02/28 03:45:30;;;;;;;4.60;0.73;;;;;;;;;;2085704;28;20029;-48
2024/02/28 03:46:31;;;;;;;2.10;0.73;;;;;;;;;;2088023;28;20486;-47
2024/02/28 03:47:33;;;;;;;2.13;0.80;;;;;;;;;;2085793;28;20375;-47
2024/02/28 03:48:34;;;;;;;3.10;1.00;;;;;;;;;;2088450;28;20119;-47
2024/02/28 03:49:35;;;;;;;3.65;1.00;;;;;;;;;;2088675;28;20090;-47
2024/02/28 03:50:37;;;;;;;3.47;1.08;;;;;;;;;;2082580;28;20112;-47
2024/02/28 03:51:41;;;;;;;2.53;0.80;;;;;;;;;;2079916;28;20022;-48
2024/02/28 03:52:43;;;;;;;9.65;1.42;;;;;;;;;;2088588;28;20021;-48
2024/02/28 03:53:44;;;;;;;2.47;0.88;;;;;;;;;;2081922;28;20453;-47
2024/02/28 03:54:45;;;;;;;2.53;0.80;;;;;;;;;;2082567;28;20021;-48
2024/02/28 03:55:47;;;;;;;3.22;0.98;;;;;;;;;;2084562;28;20583;-46
2024/02/28 03:56:48;;;;;;;4.45;0.90;;;;;;;;;;2086381;28;20033;-50
2024/02/28 03:57:51;;;;;;;4.13;0.77;;;;;;;;;;2085464;28;20021;-48
2024/02/28 03:58:53;;;;;;;4.20;0.95;;;;;;;;;;2086181;28;20025;-46
2024/02/28 03:59:54;;;;;;;3.42;1.20;;;;;;;;;;2081921;28;20024;-48
2024/02/28 04:00:55;;;;;;;2.80;1.00;;;;;;;;;;2084041;28;20444;-50
2024/02/28 04:01:57;;;;;;;4.13;0.90;;;;;;;;;;2069670;28;20858;-47
2024/02/28 04:02:58;;;;;;;3.15;1.13;;;;;;;;;;2080100;28;20037;-49
2024/02/28 04:03:59;;;;;;;4.53;1.05;;;;;;;;;;2082536;28;20024;-48
2024/02/28 04:05:00;;;;;;;3.30;0.90;;;;;;;;;;2085082;28;20036;-48
2024/02/28 04:06:02;;;;;;;6.63;0.90;;;;;;;;;;2082646;28;20499;-48
2024/02/28 04:07:03;;;;;;;3.10;0.85;;;;;;;;;;2088045;28;20564;-48
2024/02/28 04:08:05;;;;;;;1.75;1.00;;;;;;;;;;2087295;28;20499;-51
2024/02/28 04:09:06;;;;;;;2.25;0.68;;;;;;;;;;2086935;28;20028;-52
2024/02/28 04:10:08;;;;;;;3.97;0.85;;;;;;;;;;2084843;28;20492;-52
2024/02/28 04:11:09;;;;;;;3.00;1.00;;;;;;;;;;2088648;28;20029;-51
2024/02/28 04:12:11;;;;;;;2.20;0.70;;;;;;;;;;2085148;28;20060;-52
2024/02/28 04:13:12;;;;;;;5.75;1.38;;;;;;;;;;2082341;28;20025;-51
2024/02/28 04:14:14;;;;;;;3.83;0.88;;;;;;;;;;2085261;28;20036;-48
2024/02/28 04:15:15;;;;;;;3.63;0.98;;;;;;;;;;2083265;28;20045;-48
2024/02/28 04:16:16;;;;;;;4.43;1.13;;;;;;;;;;2089129;28;20009;-48
2024/02/28 04:17:17;;;;;;;4.85;1.00;;;;;;;;;;2087922;28;20021;-48
2024/02/28 04:18:19;;;;;;;3.47;0.93;;;;;;;;;;2083242;28;20108;-48
2024/02/28 04:19:20;;;;;;;4.45;0.73;;;;;;;;;;2086475;28;20017;-48
2024/02/28 04:20:21;;;;;;;3.78;0.73;;;;;;;;;;2085809;28;20396;-49
2024/02/28 04:21:23;;;;;;;4.60;1.08;;;;;;;;;;2083186;28;20468;-48
2024/02/28 04:22:24;;;;;;;5.80;1.00;;;;;;;;;;2086552;28;20109;-48
2024/02/28 04:23:25;;;;;;;4.32;1.08;;;;;;;;;;2075449;28;20057;-52
2024/02/28 04:24:27;;;;;;;3.00;0.88;;;;;;;;;;2079570;28;20021;-50
2024/02/28 04:25:28;;;;;;;3.53;1.00;;;;;;;;;;2083502;28;20029;-51
2024/02/28 04:26:29;;;;;;;3.80;0.75;;;;;;;;;;2083229;28;20033;-49
2024/02/28 04:27:30;;;;;;;4.30;1.00;;;;;;;;;;2088410;28;20451;-50
2024/02/28 04:28:32;;;;;;;2.65;0.90;;;;;;;;;;2087254;28;20032;-48
2024/02/28 04:29:33;;;;;;;6.43;1.30;;;;;;;;;;2082776;28;20083;-52
2024/02/28 04:30:38;;;;;;;5.60;1.58;;;;;;;;;;2087268;28;20483;-51
2024/02/28 04:31:39;;;;;;;4.20;0.93;;;;;;;;;;2085306;28;20022;-50
2024/02/28 04:32:40;;;;;;;2.65;1.00;;;;;;;;;;2083465;28;20354;-50
2024/02/28 04:33:41;;;;;;;3.58;1.10;;;;;;;;;;2083964;28;20068;-52
2024/02/28 04:34:43;;;;;;;5.05;1.70;;;;;;;;;;2085275;28;20140;-52
2024/02/28 04:35:44;;;;;;;4.78;0.95;;;;;;;;;;2087042;28;20058;-52
2024/02/28 04:36:45;;;;;;;4.45;1.10;;;;;;;;;;2082368;28;20465;-49
2024/02/28 04:37:46;;;;;;;4.93;1.60;;;;;;;;;;2088168;28;20020;-51
2024/02/28 04:38:48;;;;;;;4.88;0.95;;;;;;;;;;2085396;28;20060;-51
2024/02/28 04:39:49;;;;;;;3.45;1.10;;;;;;;;;;2087320;28;20083;-51
2024/02/28 04:40:51;;;;;;;4.38;1.00;;;;;;;;;;2088407;28;20016;-50
2024/02/28 04:41:52;;;;;;;4.53;1.10;;;;;;;;;;2084522;28;20505;-50
2024/02/28 04:42:53;;;;;;;3.78;1.20;;;;;;;;;;2083361;28;20025;-51
2024/02/28 04:43:54;;;;;;;3.20;1.30;;;;;;;;;;2084224;28;20388;-49
2024/02/28 04:44:55;;;;;;;2.60;1.13;;;;;;;;;;2082811;28;20105;-50
2024/02/28 04:45:57;;;;;;;1.92;0.60;;;;;;;;;;2083761;28;20037;-50
2024/02/28 04:46:58;;;;;;;2.30;0.90;;;;;;;;;;2086067;28;20029;-50
2024/02/28 04:47:59;;;;;;;4.13;0.63;;;;;;;;;;2082276;28;20032;-52
2024/02/28 04:49:00;;;;;;;3.85;0.85;;;;;;;;;;2086490;28;20098;-49
2024/02/28 04:50:04;;;;;;;2.70;0.90;;;;;;;;;;2087960;28;20021;-49
2024/02/28 04:51:05;;;;;;;3.42;1.02;;;;;;;;;;2088926;28;20043;-48
2024/02/28 04:52:07;;;;;;;5.13;1.15;;;;;;;;;;2084700;28;20502;-48
2024/02/28 04:53:08;;;;;;;1.92;0.77;;;;;;;;;;2084604;28;20155;-48
2024/02/28 04:54:10;;;;;;;1.65;0.70;;;;;;;;;;2084852;28;20039;-49
2024/02/28 04:55:12;;;;;;;2.78;0.80;;;;;;;;;;2083821;28;20503;-48
2024/02/28 04:56:13;;;;;;;4.63;1.08;;;;;;;;;;2082310;28;20017;-49
2024/02/28 04:57:15;;;;;;;2.97;0.80;;;;;;;;;;2088343;28;20043;-47
2024/02/28 04:58:16;;;;;;;2.35;1.10;;;;;;;;;;2087367;28;20408;-47
2024/02/28 04:59:17;;;;;;;5.15;1.00;;;;;;;;;;2086982;28;20499;-48
2024/02/28 05:00:19;;;;;;;3.80;1.00;;;;;;;;;;2085985;28;20029;-48
2024/02/28 05:01:20;;;;;;;2.92;0.85;;;;;;;;;;2086155;28;20499;-50
2024/02/28 05:02:22;;;;;;;4.13;1.05;;;;;;;;;;2084041;28;20029;-53
2024/02/28 05:03:24;;;;;;;1.65;0.50;;;;;;;;;;2083744;28;20026;-50
2024/02/28 05:04:26;;;;;;;6.32;0.98;;;;;;;;;;2087452;28;20532;-49
2024/02/28 05:05:28;;;;;;;3.47;1.00;;;;;;;;;;2082059;28;20568;-51
2024/02/28 05:06:29;;;;;;;2.92;1.13;;;;;;;;;;2084840;28;20045;-50
2024/02/28 05:07:30;;;;;;;4.70;1.17;;;;;;;;;;2083856;28;20044;-50
2024/02/28 05:08:31;;;;;;;1.73;0.80;;;;;;;;;;2083127;28;20044;-51
2024/02/28 05:09:32;;;;;;;2.63;0.95;;;;;;;;;;2085446;28;20041;-49
2024/02/28 05:10:34;;;;;;;2.33;0.95;;;;;;;;;;2084900;28;20115;-47
2024/02/28 05:11:35;;;;;;;2.25;0.57;;;;;;;;;;2083841;28;20022;-47
2024/02/28 05:12:36;;;;;;;6.30;1.10;;;;;;;;;;2089626;28;20037;-47
2024/02/28 05:13:38;;;;;;;3.75;1.13;;;;;;;;;;2083820;28;20067;-48
2024/02/28 05:14:39;;;;;;;2.85;0.95;;;;;;;;;;2083231;28;20460;-47
2024/02/28 05:15:40;;;;;;;3.13;0.80;;;;;;;;;;2084993;28;20033;-47
2024/02/28 05:16:41;;;;;;;3.83;1.23;;;;;;;;;;2084716;28;20059;-47
2024/02/28 05:17:43;;;;;;;3.15;1.00;;;;;;;;;;2082049;28;20101;-47
2024/02/28 05:18:47;;;;;;;4.32;0.93;;;;;;;;;;2086756;28;20021;-47
2024/02/28 05:19:48;;;;;;;3.25;0.95;;;;;;;;;;2083849;28;20408;-48
2024/02/28 05:20:49;;;;;;;3.95;1.33;;;;;;;;;;2083448;28;20032;-47
2024/02/28 05:21:51;;;;;;;2.90;1.20;;;;;;;;;;2084736;28;20032;-48
2024/02/28 05:22:52;;;;;;;3.90;0.90;;;;;;;;;;2082057;28;20029;-47
2024/02/28 05:23:53;;;;;;;2.45;0.80;;;;;;;;;;2083029;28;20021;-47
2024/02/28 05:24:55;;;;;;;1.83;0.60;;;;;;;;;;2087281;28;20009;-48
2024/02/28 05:25:57;;;;;;;2.03;0.60;;;;;;;;;;2087795;28;20067;-48
2024/02/28 05:26:58;;;;;;;5.03;0.60;;;;;;;;;;2088683;28;20025;-47
2024/02/28 05:27:59;;;;;;;2.58;1.00;;;;;;;;;;2088563;28;20032;-47
2024/02/28 05:29:01;;;;;;;1.60;0.60;;;;;;;;;;2086001;28;20504;-48
2024/02/28 05:30:05;;;;;;;2.42;0.85;;;;;;;;;;2085308;28;20037;-48
2024/02/28 05:31:22;;;;;;;2.20;0.80;;;;;;;;;;2083432;28;20104;-49
2024/02/28 05:32:25;;;;;;;1.80;0.93;;;;;;;;;;2090005;28;20041;-48
2024/02/28 05:33:26;;;;;;;3.30;0.47;;;;;;;;;;2082635;28;20009;-49
2024/02/28 05:34:28;;;;;;;4.68;0.60;;;;;;;;;;2088011;28;20492;-47
2024/02/28 05:35:29;;;;;;;2.75;1.15;;;;;;;;;;2084370;28;20072;-48
2024/02/28 05:36:31;;;;;;;3.70;0.95;;;;;;;;;;2085959;28;20052;-48
2024/02/28 05:37:32;;;;;;;5.75;0.98;;;;;;;;;;2089560;28;20056;-48
2024/02/28 05:38:33;;;;;;;2.95;0.90;;;;;;;;;;2087343;28;20426;-48
2024/02/28 05:39:35;;;;;;;2.78;1.08;;;;;;;;;;2083900;28;20043;-47
2024/02/28 05:40:36;;;;;;;6.88;1.33;;;;;;;;;;2086998;28;20028;-47
2024/02/28 05:41:37;;;;;;;3.00;1.00;;;;;;;;;;2086212;28;20021;-48
2024/02/28 05:42:39;;;;;;;3.13;0.80;;;;;;;;;;2087561;28;20091;-47
2024/02/28 05:43:41;;;;;;;2.45;0.82;;;;;;;;;;2084418;28;20376;-48
2024/02/28 05:44:43;;;;;;;1.60;0.70;;;;;;;;;;2089448;28;20017;-48
2024/02/28 05:45:45;;;;;;;3.78;0.65;;;;;;;;;;2087539;28;20029;-48
2024/02/28 05:46:46;;;;;;;3.45;0.85;;;;;;;;;;2081564;28;20120;-48
2024/02/28 05:47:47;;;;;;;3.35;0.80;;;;;;;;;;2084880;28;20048;-48
2024/02/28 05:48:48;;;;;;;2.50;1.10;;;;;;;;;;2086815;28;20032;-47
2024/02/28 05:49:50;;;;;;;3.78;1.13;;;;;;;;;;2088314;28;20017;-52
2024/02/28 05:50:51;;;;;;;5.28;1.30;;;;;;;;;;2085868;28;20021;-52
2024/02/28 05:51:53;;;;;;;3.05;0.85;;;;;;;;;;2081562;28;20408;-52
2024/02/28 05:52:55;;;;;;;4.15;1.40;;;;;;;;;;2083303;28;20020;-53
2024/02/28 05:53:56;;;;;;;3.35;1.40;;;;;;;;;;2085747;28;20025;-50
2024/02/28 05:54:57;;;;;;;2.88;0.90;;;;;;;;;;2083022;28;20581;-53
2024/02/28 05:55:59;;;;;;;2.58;0.95;;;;;;;;;;2086404;28;20396;-52
2024/02/28 05:57:00;;;;;;;3.88;1.10;;;;;;;;;;2084507;28;20036;-52
2024/02/28 05:58:02;;;;;;;2.30;0.95;;;;;;;;;;2086865;28;20025;-50
2024/02/28 05:59:03;;;;;;;2.65;1.10;;;;;;;;;;2085684;28;20029;-53
2024/02/28 06:00:09;;;;;;;2.10;0.93;;;;;;;;;;2083307;28;20028;-53
2024/02/28 06:01:11;;;;;;;2.10;1.10;;;;;;;;;;2088854;28;20131;-52
2024/02/28 06:02:12;;;;;;;1.83;0.70;;;;;;;;;;2082346;28;20025;-53
2024/02/28 06:03:14;;;;;;;4.72;1.00;;;;;;;;;;2088296;28;20021;-51
2024/02/28 06:04:16;;;;;;;5.35;1.10;;;;;;;;;;2086119;28;20029;-54
2024/02/28 06:05:17;;;;;;;2.55;0.80;;;;;;;;;;2082498;28;20018;-53
2024/02/28 06:06:18;;;;;;;3.65;1.10;;;;;;;;;;2085812;28;20412;-53
2024/02/28 06:07:20;;;;;;;2.92;1.00;;;;;;;;;;2087575;28;20494;-52
2024/02/28 06:08:21;;;;;;;3.15;1.00;;;;;;;;;;2087631;28;20104;-53
2024/02/28 06:09:22;;;;;;;3.72;1.58;;;;;;;;;;2084031;28;20017;-49